createdAt,value
2018-10-16T00:01:27.342Z,11.53
2018-10-16T00:03:54.842Z,11.50
2018-10-16T00:06:22.611Z,12.70
2018-10-16T00:08:50.175Z,11.67
2018-10-16T00:11:17.688Z,11.63
2018-10-16T00:13:45.063Z,11.07
2018-10-16T00:16:12.477Z,10.50
2018-10-16T00:18:39.934Z,11.67
2018-10-16T00:21:07.324Z,13.30
2018-10-16T00:23:34.724Z,12.00
2018-10-16T00:26:02.321Z,12.33
2018-10-16T00:28:29.779Z,11.13
2018-10-16T00:30:57.294Z,11.53
2018-10-16T00:33:25.104Z,10.37
2018-10-16T00:35:52.911Z,10.73
2018-10-16T00:38:20.375Z,11.80
2018-10-16T00:40:47.801Z,11.80
2018-10-16T00:43:15.238Z,11.30
2018-10-16T00:45:42.702Z,10.47
2018-10-16T00:48:10.147Z,10.37
2018-10-16T00:50:37.536Z,11.33
2018-10-16T00:53:05.012Z,10.87
2018-10-16T00:55:32.612Z,11.37
2018-10-16T00:57:59.966Z,12.47
2018-10-16T01:00:27.375Z,12.00
2018-10-16T01:02:56.262Z,10.63
2018-10-16T01:05:24.027Z,11.77
2018-10-16T01:07:51.900Z,12.17
2018-10-16T01:10:19.353Z,11.67
2018-10-16T01:12:46.934Z,11.97
2018-10-16T01:15:14.300Z,12.70
2018-10-16T01:17:41.826Z,11.77
2018-10-16T01:20:11.306Z,11.60
2018-10-16T01:22:38.878Z,11.03
2018-10-16T01:25:06.999Z,12.23
2018-10-16T01:27:34.434Z,12.10
2018-10-16T01:30:01.912Z,11.30
2018-10-16T01:32:29.664Z,11.37
2018-10-16T01:34:57.075Z,10.40
2018-10-16T01:37:25.184Z,11.20
2018-10-16T01:39:53.845Z,11.23
2018-10-16T01:42:21.345Z,11.27
2018-10-16T01:44:48.727Z,11.80
2018-10-16T01:47:16.179Z,11.20
2018-10-16T01:49:43.578Z,10.10
2018-10-16T01:52:10.969Z,10.77
2018-10-16T01:54:38.375Z,11.67
2018-10-16T01:57:05.896Z,10.60
2018-10-16T01:59:33.410Z,11.30
2018-10-16T02:02:00.927Z,10.60
2018-10-16T02:04:28.359Z,11.70
2018-10-16T02:06:55.789Z,11.17
2018-10-16T02:09:23.232Z,10.97
2018-10-16T02:11:50.625Z,11.83
2018-10-16T02:14:17.970Z,11.40
2018-10-16T02:16:45.447Z,11.10
2018-10-16T02:19:12.805Z,11.00
2018-10-16T02:21:40.351Z,12.03
2018-10-16T02:24:08.190Z,11.47
2018-10-16T02:26:35.690Z,11.80
2018-10-16T02:29:03.521Z,12.40
2018-10-16T02:31:31.486Z,12.03
2018-10-16T02:33:58.976Z,11.37
2018-10-16T02:36:26.440Z,12.27
2018-10-16T02:38:53.829Z,12.90
2018-10-16T02:41:21.360Z,12.60
2018-10-16T02:43:48.822Z,11.80
2018-10-16T02:46:16.231Z,11.13
2018-10-16T02:48:43.670Z,10.83
2018-10-16T02:51:11.293Z,10.17
2018-10-16T02:53:38.960Z,11.43
2018-10-16T02:56:06.743Z,10.03
2018-10-16T02:58:34.494Z,9.87
2018-10-16T03:01:02.497Z,11.00
2018-10-16T03:03:35.115Z,10.87
2018-10-16T03:06:02.796Z,10.63
2018-10-16T03:08:30.324Z,10.57
2018-10-16T03:10:57.780Z,11.33
2018-10-16T03:13:25.157Z,10.70
2018-10-16T03:15:52.562Z,11.17
2018-10-16T03:18:20.006Z,11.77
2018-10-16T03:20:47.426Z,11.13
2018-10-16T03:23:14.847Z,10.47
2018-10-16T03:25:42.483Z,12.40
2018-10-16T03:28:09.992Z,12.30
2018-10-16T03:30:37.535Z,10.73
2018-10-16T03:33:05.125Z,13.27
2018-10-16T03:35:32.659Z,11.90
2018-10-16T03:38:00.221Z,11.20
2018-10-16T03:40:27.654Z,12.03
2018-10-16T03:42:55.124Z,10.53
2018-10-16T03:45:22.582Z,10.47
2018-10-16T03:47:49.988Z,11.83
2018-10-16T03:50:17.401Z,10.73
2018-10-16T03:52:44.769Z,10.43
2018-10-16T03:55:12.375Z,11.40
2018-10-16T03:57:39.867Z,11.47
2018-10-16T04:00:07.786Z,10.47
2018-10-16T04:02:35.447Z,10.43
2018-10-16T04:05:03.161Z,9.53
2018-10-16T04:07:30.739Z,9.60
2018-10-16T04:09:58.115Z,9.83
2018-10-16T04:12:25.539Z,10.37
2018-10-16T04:14:53.024Z,10.70
2018-10-16T04:17:20.424Z,10.23
2018-10-16T04:19:47.791Z,9.60
2018-10-16T04:22:15.167Z,9.03
2018-10-16T04:24:42.663Z,10.37
2018-10-16T04:27:10.170Z,10.27
2018-10-16T04:29:37.547Z,10.03
2018-10-16T04:32:05.613Z,8.80
2018-10-16T04:34:33.663Z,9.50
2018-10-16T04:37:01.042Z,10.57
2018-10-16T04:39:28.422Z,10.60
2018-10-16T04:42:02.427Z,10.47
2018-10-16T04:44:29.798Z,10.37
2018-10-16T04:46:57.247Z,11.30
2018-10-16T04:49:24.639Z,10.73
2018-10-16T04:51:52.045Z,11.33
2018-10-16T04:54:19.416Z,10.00
2018-10-16T04:56:46.860Z,10.47
2018-10-16T04:59:14.332Z,9.77
2018-10-16T05:01:41.816Z,10.97
2018-10-16T05:04:09.457Z,10.47
2018-10-16T05:06:37.189Z,11.10
2018-10-16T05:09:06.415Z,10.20
2018-10-16T05:11:35.205Z,10.43
2018-10-16T05:14:02.755Z,11.37
2018-10-16T05:16:30.176Z,15.13
2018-10-16T05:18:57.661Z,21.93
2018-10-16T05:21:25.132Z,11.77
2018-10-16T05:23:52.528Z,12.50
2018-10-16T05:26:19.908Z,12.10
2018-10-16T05:28:47.367Z,12.03
2018-10-16T05:31:14.896Z,12.30
2018-10-16T05:33:42.286Z,10.47
2018-10-16T05:36:09.944Z,9.93
2018-10-16T05:38:38.386Z,12.40
2018-10-16T05:41:06.111Z,11.57
2018-10-16T05:43:33.819Z,12.30
2018-10-16T05:46:01.240Z,12.00
2018-10-16T05:48:28.775Z,12.07
2018-10-16T05:50:56.138Z,11.47
2018-10-16T05:53:23.622Z,12.00
2018-10-16T05:55:55.689Z,11.87
2018-10-16T05:58:23.104Z,12.23
2018-10-16T06:00:50.556Z,12.00
2018-10-16T06:03:17.940Z,12.30
2018-10-16T06:05:45.463Z,11.47
2018-10-16T06:08:12.806Z,12.23
2018-10-16T06:10:40.284Z,10.87
2018-10-16T06:13:08.089Z,12.07
2018-10-16T06:15:36.004Z,11.70
2018-10-16T06:18:03.592Z,12.03
2018-10-16T06:20:31.039Z,10.40
2018-10-16T06:22:58.435Z,12.23
2018-10-16T06:25:25.936Z,12.63
2018-10-16T06:27:53.545Z,13.23
2018-10-16T06:30:20.987Z,13.03
2018-10-16T06:32:48.387Z,12.10
2018-10-16T06:35:15.960Z,12.43
2018-10-16T06:37:43.451Z,12.70
2018-10-16T06:40:11.206Z,16.73
2018-10-16T06:42:39.127Z,29.83
2018-10-16T06:45:07.479Z,14.27
2018-10-16T06:47:35.469Z,11.80
2018-10-16T06:50:02.888Z,11.43
2018-10-16T06:52:30.322Z,13.67
2018-10-16T06:54:57.674Z,12.03
2018-10-16T06:57:25.094Z,23.03
2018-10-16T06:59:52.550Z,12.40
2018-10-16T07:02:19.967Z,12.30
2018-10-16T07:04:47.323Z,11.57
2018-10-16T07:07:15.017Z,10.60
2018-10-16T07:09:42.504Z,11.43
2018-10-16T07:12:10.310Z,12.90
2018-10-16T07:14:38.310Z,11.83
2018-10-16T07:17:06.099Z,12.60
2018-10-16T07:19:33.529Z,11.57
2018-10-16T07:22:01.323Z,12.07
2018-10-16T07:24:28.678Z,11.30
2018-10-16T07:26:56.089Z,9.90
2018-10-16T07:29:23.487Z,12.60
2018-10-16T07:31:50.855Z,13.20
2018-10-16T07:34:18.265Z,13.23
2018-10-16T07:36:45.818Z,12.40
2018-10-16T07:39:13.771Z,11.80
2018-10-16T07:41:41.884Z,18.00
2018-10-16T07:44:09.751Z,14.30
2018-10-16T07:46:37.479Z,12.70
2018-10-16T07:49:05.349Z,16.00
2018-10-16T07:51:32.862Z,13.20
2018-10-16T07:54:00.290Z,12.43
2018-10-16T07:56:27.648Z,12.80
2018-10-16T07:58:55.057Z,13.47
2018-10-16T08:01:22.432Z,11.97
2018-10-16T08:03:49.862Z,13.57
2018-10-16T08:06:17.335Z,12.37
2018-10-16T08:08:44.725Z,14.43
2018-10-16T08:11:12.244Z,11.97
2018-10-16T08:13:39.876Z,12.50
2018-10-16T08:16:08.231Z,12.13
2018-10-16T08:18:35.874Z,11.97
2018-10-16T08:21:03.243Z,12.40
2018-10-16T08:23:30.662Z,12.97
2018-10-16T08:25:58.031Z,12.00
2018-10-16T08:28:25.406Z,21.80
2018-10-16T08:30:52.770Z,17.93
2018-10-16T08:33:20.159Z,13.97
2018-10-16T08:35:47.815Z,13.53
2018-10-16T08:38:24.152Z,13.43
2018-10-16T08:40:51.547Z,13.53
2018-10-16T08:43:26.032Z,13.10
2018-10-16T08:45:58.859Z,11.17
2018-10-16T08:48:31.895Z,11.40
2018-10-16T08:51:04.802Z,11.93
2018-10-16T08:53:32.160Z,9.43
2018-10-16T08:55:59.538Z,13.57
2018-10-16T08:58:26.894Z,11.80
2018-10-16T09:00:54.297Z,11.10
2018-10-16T09:03:21.665Z,11.83
2018-10-16T09:05:49.042Z,12.30
2018-10-16T09:08:16.486Z,21.63
2018-10-16T09:10:43.876Z,14.50
2018-10-16T09:13:11.313Z,10.97
2018-10-16T09:15:38.713Z,10.00
2018-10-16T09:18:06.270Z,11.23
2018-10-16T09:20:33.940Z,12.30
2018-10-16T09:23:01.596Z,13.33
2018-10-16T09:25:29.259Z,11.07
2018-10-16T09:27:56.650Z,12.07
2018-10-16T09:30:24.091Z,11.73
2018-10-16T09:32:51.494Z,12.30
2018-10-16T09:35:18.878Z,12.20
2018-10-16T09:37:46.305Z,11.83
2018-10-16T09:40:13.650Z,13.40
2018-10-16T09:42:41.294Z,10.77
2018-10-16T09:45:09.911Z,11.97
2018-10-16T09:47:37.505Z,12.17
2018-10-16T09:50:05.573Z,12.97
2018-10-16T09:52:33.440Z,11.33
2018-10-16T09:55:01.202Z,12.37
2018-10-16T09:57:28.619Z,10.87
2018-10-16T09:59:56.011Z,10.30
2018-10-16T10:02:23.359Z,11.13
2018-10-16T10:04:50.790Z,11.73
2018-10-16T10:07:18.140Z,10.53
2018-10-16T10:09:45.543Z,10.90
2018-10-16T10:12:13.012Z,9.87
2018-10-16T10:14:40.557Z,12.00
2018-10-16T10:17:07.996Z,10.53
2018-10-16T10:19:35.542Z,12.07
2018-10-16T10:22:03.294Z,8.50
2018-10-16T10:24:30.798Z,9.00
2018-10-16T10:26:58.250Z,10.43
2018-10-16T10:29:25.611Z,9.33
2018-10-16T10:31:53.032Z,11.37
2018-10-16T10:34:20.407Z,10.80
2018-10-16T10:36:47.839Z,9.10
2018-10-16T10:39:15.209Z,10.07
2018-10-16T10:41:43.101Z,11.30
2018-10-16T10:44:10.568Z,10.17
2018-10-16T10:46:38.402Z,10.07
2018-10-16T10:49:05.952Z,11.63
2018-10-16T10:51:34.069Z,9.77
2018-10-16T10:54:01.404Z,10.40
2018-10-16T10:56:28.946Z,9.80
2018-10-16T10:58:56.244Z,10.23
2018-10-16T11:01:23.804Z,9.30
2018-10-16T11:03:51.482Z,8.90
2018-10-16T11:06:18.929Z,7.60
2018-10-16T11:08:46.285Z,9.30
2018-10-16T11:11:13.797Z,10.37
2018-10-16T11:13:41.260Z,8.90
2018-10-16T11:16:08.842Z,9.27
2018-10-16T11:18:36.288Z,14.83
2018-10-16T11:21:04.216Z,10.13
2018-10-16T11:23:31.716Z,10.80
2018-10-16T11:25:59.115Z,7.83
2018-10-16T11:28:26.470Z,10.60
2018-10-16T11:30:53.860Z,8.80
2018-10-16T11:33:21.208Z,9.83
2018-10-16T11:35:48.612Z,9.40
2018-10-16T11:38:15.970Z,9.00
2018-10-16T11:40:43.476Z,9.33
2018-10-16T11:43:10.875Z,6.53
2018-10-16T11:45:38.445Z,8.73
2018-10-16T11:48:06.274Z,8.73
2018-10-16T11:50:33.906Z,11.23
2018-10-16T11:53:01.306Z,7.97
2018-10-16T11:55:28.651Z,9.30
2018-10-16T11:57:56.018Z,8.00
2018-10-16T12:00:24.884Z,8.90
2018-10-16T12:02:52.520Z,8.80
2018-10-16T12:05:19.887Z,8.30
2018-10-16T12:07:47.262Z,9.23
2018-10-16T12:10:14.716Z,9.70
2018-10-16T12:12:42.088Z,7.90
2018-10-16T12:15:09.588Z,7.80
2018-10-16T12:17:41.313Z,7.87
2018-10-16T12:20:11.919Z,7.10
2018-10-16T12:22:39.446Z,7.60
2018-10-16T12:25:07.190Z,7.10
2018-10-16T12:27:34.827Z,7.70
2018-10-16T12:30:02.286Z,7.77
2018-10-16T12:32:29.645Z,7.00
2018-10-16T12:34:56.992Z,7.60
2018-10-16T12:37:24.381Z,6.03
2018-10-16T12:39:51.744Z,11.60
2018-10-16T12:42:19.130Z,7.30
2018-10-16T12:44:46.510Z,8.43
2018-10-16T12:47:14.067Z,6.77
2018-10-16T12:49:41.362Z,8.40
2018-10-16T12:52:08.850Z,8.90
2018-10-16T12:54:36.546Z,7.40
2018-10-16T12:57:04.220Z,7.47
2018-10-16T12:59:31.640Z,8.33
2018-10-16T13:01:59.041Z,6.80
2018-10-16T13:04:26.493Z,7.70
2018-10-16T13:06:53.845Z,5.50
2018-10-16T13:09:21.219Z,7.70
2018-10-16T13:11:48.552Z,7.23
2018-10-16T13:14:16.064Z,7.90
2018-10-16T13:16:43.472Z,6.90
2018-10-16T13:19:11.063Z,7.23
2018-10-16T13:21:38.587Z,7.97
2018-10-16T13:24:06.392Z,7.70
2018-10-16T13:26:33.914Z,7.53
2018-10-16T13:29:01.416Z,6.33
2018-10-16T13:31:28.767Z,7.40
2018-10-16T13:33:56.255Z,7.57
2018-10-16T13:36:23.598Z,6.47
2018-10-16T13:38:50.968Z,7.20
2018-10-16T13:41:18.380Z,7.60
2018-10-16T13:43:45.988Z,7.73
2018-10-16T13:46:13.414Z,7.30
2018-10-16T13:48:41.031Z,8.43
2018-10-16T13:51:08.639Z,7.07
2018-10-16T13:53:36.278Z,7.80
2018-10-16T13:56:03.705Z,7.13
2018-10-16T13:58:31.134Z,7.60
2018-10-16T14:00:58.509Z,7.87
2018-10-16T14:03:25.907Z,6.70
2018-10-16T14:05:53.361Z,8.60
2018-10-16T14:08:20.738Z,6.87
2018-10-16T14:10:48.115Z,6.87
2018-10-16T14:13:15.629Z,6.30
2018-10-16T14:15:43.140Z,16.50
2018-10-16T14:18:10.716Z,29.13
2018-10-16T14:20:38.514Z,9.30
2018-10-16T14:23:06.343Z,6.73
2018-10-16T14:25:33.704Z,7.37
2018-10-16T14:28:01.225Z,7.60
2018-10-16T14:30:28.576Z,6.87
2018-10-16T14:32:55.941Z,6.03
2018-10-16T14:35:23.355Z,5.70
2018-10-16T14:37:50.779Z,6.33
2018-10-16T14:40:18.358Z,6.20
2018-10-16T14:42:45.782Z,5.63
2018-10-16T14:45:13.863Z,7.67
2018-10-16T14:47:41.421Z,7.77
2018-10-16T14:50:09.741Z,8.00
2018-10-16T14:52:37.398Z,7.50
2018-10-16T14:55:05.550Z,7.10
2018-10-16T14:57:32.962Z,7.03
2018-10-16T15:00:00.518Z,8.40
2018-10-16T15:02:27.892Z,7.20
2018-10-16T15:04:55.280Z,6.90
2018-10-16T15:07:22.641Z,7.10
2018-10-16T15:09:50.083Z,7.47
2018-10-16T15:12:17.723Z,7.17
2018-10-16T15:14:45.104Z,7.13
2018-10-16T15:17:12.578Z,7.03
2018-10-16T15:19:40.518Z,7.70
2018-10-16T15:22:08.273Z,6.33
2018-10-16T15:24:35.752Z,6.43
2018-10-16T15:27:03.119Z,6.80
2018-10-16T15:29:30.490Z,7.83
2018-10-16T15:31:57.882Z,6.50
2018-10-16T15:34:25.313Z,7.23
2018-10-16T15:36:52.678Z,6.93
2018-10-16T15:39:20.047Z,8.37
2018-10-16T15:41:47.433Z,6.57
2018-10-16T15:44:14.992Z,7.40
2018-10-16T15:46:42.421Z,7.77
2018-10-16T15:49:10.218Z,6.90
2018-10-16T15:51:38.091Z,8.67
2018-10-16T15:54:05.588Z,7.30
2018-10-16T15:56:32.932Z,7.70
2018-10-16T15:59:00.303Z,7.83
2018-10-16T16:01:28.159Z,7.77
2018-10-16T16:03:55.570Z,6.50
2018-10-16T16:06:22.913Z,7.40
2018-10-16T16:08:50.347Z,8.17
2018-10-16T16:11:17.818Z,7.03
2018-10-16T16:13:45.356Z,8.00
2018-10-16T16:16:12.914Z,6.67
2018-10-16T16:18:40.649Z,6.87
2018-10-16T16:21:08.626Z,7.53
2018-10-16T16:23:36.150Z,8.90
2018-10-16T16:26:03.524Z,8.30
2018-10-16T16:28:30.891Z,9.30
2018-10-16T16:30:58.286Z,8.03
2018-10-16T16:33:25.678Z,8.00
2018-10-16T16:35:53.132Z,8.70
2018-10-16T16:38:20.480Z,10.40
2018-10-16T16:40:48.070Z,10.70
2018-10-16T16:43:15.656Z,8.43
2018-10-16T16:45:43.246Z,8.50
2018-10-16T16:48:11.046Z,9.40
2018-10-16T16:50:38.841Z,10.30
2018-10-16T16:53:06.248Z,10.33
2018-10-16T16:55:33.586Z,11.40
2018-10-16T16:58:01.235Z,9.03
2018-10-16T17:00:28.582Z,8.40
2018-10-16T17:02:55.927Z,6.97
2018-10-16T17:05:23.310Z,8.40
2018-10-16T17:07:50.737Z,8.40
2018-10-16T17:10:18.158Z,9.13
2018-10-16T17:12:45.602Z,8.03
2018-10-16T17:15:14.434Z,8.27
2018-10-16T17:17:42.321Z,8.03
2018-10-16T17:20:11.222Z,7.47
2018-10-16T17:22:38.802Z,7.67
2018-10-16T17:25:06.878Z,8.00
2018-10-16T17:27:34.155Z,7.50
2018-10-16T17:30:01.550Z,9.27
2018-10-16T17:32:28.912Z,7.97
2018-10-16T17:34:56.271Z,7.37
2018-10-16T17:37:23.662Z,7.83
2018-10-16T17:39:51.090Z,7.47
2018-10-16T17:42:18.481Z,8.43
2018-10-16T17:44:46.079Z,9.57
2018-10-16T17:47:13.887Z,12.30
2018-10-16T17:49:41.592Z,8.73
2018-10-16T17:52:09.131Z,8.97
2018-10-16T17:54:36.543Z,9.27
2018-10-16T17:57:04.022Z,8.13
2018-10-16T17:59:33.336Z,9.67
2018-10-16T18:02:00.718Z,8.40
2018-10-16T18:04:28.247Z,9.30
2018-10-16T18:06:55.902Z,10.85
2018-10-16T18:09:23.318Z,9.77
2018-10-16T18:11:50.923Z,8.70
2018-10-16T18:14:18.250Z,8.73
2018-10-16T18:16:45.660Z,9.07
2018-10-16T18:19:13.259Z,7.70
2018-10-16T18:21:40.997Z,9.67
2018-10-16T18:24:08.407Z,8.83
2018-10-16T18:26:35.815Z,8.57
2018-10-16T18:29:03.183Z,8.57
2018-10-16T18:31:30.576Z,8.50
2018-10-16T18:33:58.729Z,8.83
2018-10-16T18:36:26.553Z,12.20
2018-10-16T18:38:53.951Z,22.90
2018-10-16T18:41:21.448Z,12.60
2018-10-16T18:43:48.836Z,8.80
2018-10-16T18:46:16.274Z,9.03
2018-10-16T18:48:44.531Z,9.37
2018-10-16T18:51:12.430Z,8.83
2018-10-16T18:53:39.871Z,8.60
2018-10-16T18:56:07.362Z,8.23
2018-10-16T18:58:34.719Z,8.50
2018-10-16T19:01:02.114Z,8.60
2018-10-16T19:03:29.461Z,8.97
2018-10-16T19:05:56.890Z,9.67
2018-10-16T19:08:24.336Z,9.37
2018-10-16T19:10:52.362Z,10.10
2018-10-16T19:13:19.722Z,11.17
2018-10-16T19:15:47.588Z,10.23
2018-10-16T19:18:15.604Z,12.23
2018-10-16T19:20:44.050Z,10.90
2018-10-16T19:23:12.436Z,10.07
2018-10-16T19:25:39.898Z,10.30
2018-10-16T19:28:07.652Z,11.33
2018-10-16T19:30:35.080Z,9.73
2018-10-16T19:33:02.504Z,10.77
2018-10-16T19:35:30.806Z,13.27
2018-10-16T19:37:58.191Z,10.40
2018-10-16T19:40:25.549Z,11.10
2018-10-16T19:42:52.987Z,12.17
2018-10-16T19:45:20.490Z,11.80
2018-10-16T19:47:48.000Z,11.70
2018-10-16T19:50:15.722Z,10.90
2018-10-16T19:52:43.556Z,11.00
2018-10-16T19:55:11.015Z,12.43
2018-10-16T19:57:38.426Z,15.40
2018-10-16T20:00:06.489Z,26.87
2018-10-16T20:02:33.855Z,13.20
2018-10-16T20:05:01.206Z,12.53
2018-10-16T20:07:28.582Z,11.93
2018-10-16T20:09:55.947Z,11.73
2018-10-16T20:12:23.502Z,11.10
2018-10-16T20:14:50.980Z,12.40
2018-10-16T20:17:19.720Z,13.20
2018-10-16T20:19:48.011Z,11.23
2018-10-16T20:22:16.327Z,13.33
2018-10-16T20:24:47.279Z,15.90
2018-10-16T20:27:15.244Z,14.23
2018-10-16T20:29:43.466Z,13.57
2018-10-16T20:32:10.944Z,12.93
2018-10-16T20:34:38.411Z,15.40
2018-10-16T20:37:05.855Z,17.47
2018-10-16T20:39:33.180Z,16.07
2018-10-16T20:42:00.607Z,16.97
2018-10-16T20:44:28.024Z,18.40
2018-10-16T20:46:55.435Z,15.63
2018-10-16T20:49:22.907Z,17.13
2018-10-16T20:51:50.631Z,14.80
2018-10-16T20:54:18.585Z,14.20
2018-10-16T20:56:46.374Z,14.30
2018-10-16T20:59:14.577Z,14.03
2018-10-16T21:01:42.131Z,13.00
2018-10-16T21:04:09.689Z,12.10
2018-10-16T21:06:37.169Z,12.93
2018-10-16T21:09:05.557Z,12.80
2018-10-16T21:11:32.936Z,12.90
2018-10-16T21:14:00.312Z,14.90
2018-10-16T21:16:27.653Z,11.87
2018-10-16T21:18:55.053Z,12.80
2018-10-16T21:21:22.494Z,13.20
2018-10-16T21:23:50.383Z,12.03
2018-10-16T21:26:18.229Z,14.03
2018-10-16T21:28:46.076Z,12.77
2018-10-16T21:31:14.232Z,13.73
2018-10-16T21:33:41.555Z,14.20
2018-10-16T21:36:09.006Z,13.03
2018-10-16T21:38:36.682Z,15.00
2018-10-16T21:41:04.082Z,14.10
2018-10-16T21:43:31.502Z,13.13
2018-10-16T21:45:58.866Z,13.50
2018-10-16T21:48:26.216Z,16.00
2018-10-16T21:50:53.869Z,13.83
2018-10-16T21:53:21.244Z,14.57
2018-10-16T21:55:48.718Z,13.37
2018-10-16T21:58:16.309Z,14.33
2018-10-16T22:00:49.038Z,12.77
2018-10-16T22:03:16.811Z,14.77
2018-10-16T22:05:44.488Z,13.47
2018-10-16T22:08:11.989Z,14.97
2018-10-16T22:10:39.338Z,14.10
2018-10-16T22:13:10.023Z,13.50
2018-10-16T22:15:37.290Z,14.47
2018-10-16T22:18:04.638Z,13.87
2018-10-16T22:20:32.006Z,12.13
2018-10-16T22:22:59.434Z,12.67
2018-10-16T22:25:26.817Z,13.77
2018-10-16T22:27:54.302Z,14.80
2018-10-16T22:30:21.843Z,13.77
2018-10-16T22:32:49.286Z,14.00
2018-10-16T22:35:17.151Z,14.30
2018-10-16T22:37:45.109Z,14.97
2018-10-16T22:40:12.656Z,14.60
2018-10-16T22:42:40.026Z,14.53
2018-10-16T22:45:07.639Z,13.80
2018-10-16T22:47:35.162Z,14.50
2018-10-16T22:50:02.600Z,14.10
2018-10-16T22:52:29.994Z,13.67
2018-10-16T22:54:57.601Z,14.30
2018-10-16T22:57:25.146Z,16.17
2018-10-16T22:59:52.552Z,13.47
2018-10-16T23:02:20.141Z,13.30
2018-10-16T23:04:47.780Z,15.37
2018-10-16T23:07:15.655Z,13.40
2018-10-16T23:09:43.045Z,14.57
2018-10-16T23:12:10.853Z,13.60
2018-10-16T23:14:38.822Z,13.30
2018-10-16T23:17:06.445Z,12.60
2018-10-16T23:19:34.406Z,15.10
2018-10-16T23:22:02.144Z,13.83
2018-10-16T23:24:29.927Z,14.13
2018-10-16T23:26:57.813Z,14.53
2018-10-16T23:29:25.938Z,14.30
2018-10-16T23:31:53.605Z,14.13
2018-10-16T23:34:21.654Z,14.63
2018-10-16T23:36:49.752Z,15.60
2018-10-16T23:39:18.029Z,14.30
2018-10-16T23:41:46.189Z,12.77
2018-10-16T23:44:13.640Z,14.20
2018-10-16T23:46:41.621Z,14.93
2018-10-16T23:49:10.236Z,14.23
2018-10-16T23:51:38.026Z,14.80
2018-10-16T23:54:06.303Z,13.50
2018-10-16T23:56:33.759Z,13.93
2018-10-16T23:59:01.253Z,14.20
